createdAt,value
2022-08-02T00:00:10.886Z,15.26
2022-08-02T00:01:14.724Z,15.25
2022-08-02T00:02:11.923Z,15.26
2022-08-02T00:03:10.380Z,15.28
2022-08-02T00:04:07.375Z,15.27
2022-08-02T00:05:07.865Z,15.27
2022-08-02T00:06:04.882Z,15.27
2022-08-02T00:07:01.764Z,15.27
2022-08-02T00:07:58.581Z,15.26
2022-08-02T00:08:55.580Z,15.26
2022-08-02T00:09:52.498Z,15.21
2022-08-02T00:10:49.615Z,15.24
2022-08-02T00:11:46.554Z,15.23
2022-08-02T00:12:43.484Z,15.22
2022-08-02T00:13:40.245Z,15.24
2022-08-02T00:14:37.281Z,15.26
2022-08-02T00:15:34.040Z,15.25
2022-08-02T00:16:38.039Z,15.24
2022-08-02T00:17:35.443Z,15.25
2022-08-02T00:23:02.777Z,15.25
2022-08-02T00:24:29.537Z,15.25
2022-08-02T00:25:16.312Z,15.24
2022-08-02T00:26:13.368Z,15.23
2022-08-02T00:27:10.079Z,15.22
2022-08-02T00:28:07.021Z,15.25
2022-08-02T00:29:04.085Z,15.26
2022-08-02T00:30:00.758Z,15.26
2022-08-02T00:30:58.050Z,15.28
2022-08-02T00:31:54.973Z,15.28
2022-08-02T00:32:51.955Z,15.27
2022-08-02T00:34:26.685Z,15.28
2022-08-02T00:35:05.866Z,15.31
2022-08-02T00:36:03.853Z,15.33
2022-08-02T00:37:00.533Z,15.32
2022-08-02T00:37:57.367Z,15.30
2022-08-02T00:38:54.110Z,15.31
2022-08-02T00:39:50.834Z,15.34
2022-08-02T00:40:48.868Z,15.36
2022-08-02T00:41:48.899Z,15.37
2022-08-02T00:42:45.636Z,15.33
2022-08-02T00:43:43.077Z,15.36
2022-08-02T00:44:39.825Z,15.36
2022-08-02T00:46:03.090Z,15.35
2022-08-02T00:46:57.602Z,15.33
2022-08-02T00:53:54.555Z,15.30
2022-08-02T00:54:51.446Z,15.29
2022-08-02T00:55:48.284Z,15.29
2022-08-02T00:56:49.564Z,15.27
2022-08-02T00:57:46.934Z,15.27
2022-08-02T00:58:43.718Z,15.28
2022-08-02T00:59:42.094Z,15.28
2022-08-02T01:00:38.875Z,15.28
2022-08-02T01:01:38.671Z,15.29
2022-08-02T01:02:54.456Z,15.29
2022-08-02T01:03:51.245Z,15.29
2022-08-02T01:04:48.052Z,15.28
2022-08-02T01:05:52.630Z,15.30
2022-08-02T01:07:12.046Z,15.34
2022-08-02T01:08:10.674Z,15.36
2022-08-02T01:09:07.539Z,15.33
2022-08-02T01:10:05.285Z,15.35
2022-08-02T01:11:02.102Z,15.35
2022-08-02T01:12:07.237Z,15.35
2022-08-02T01:13:04.259Z,15.35
2022-08-02T01:14:06.973Z,15.34
2022-08-02T01:15:06.536Z,15.35
2022-08-02T01:16:13.080Z,15.34
2022-08-02T01:17:22.533Z,15.31
2022-08-02T01:18:24.729Z,15.31
2022-08-02T01:19:33.548Z,15.29
2022-08-02T01:20:49.246Z,15.28
2022-08-02T01:21:59.747Z,15.28
2022-08-02T01:23:03.569Z,15.28
2022-08-02T01:24:31.155Z,15.29
2022-08-02T01:25:54.337Z,15.30
2022-08-02T01:26:55.580Z,15.29
2022-08-02T01:28:15.598Z,15.26
2022-08-02T01:29:14.546Z,15.24
2022-08-02T01:30:11.388Z,15.22
2022-08-02T01:31:14.347Z,15.22
2022-08-02T01:32:23.651Z,15.22
2022-08-02T01:33:20.571Z,15.23
2022-08-02T01:34:19.644Z,15.23
2022-08-02T01:35:20.462Z,15.23
2022-08-02T01:36:18.238Z,15.21
2022-08-02T01:37:26.537Z,15.18
2022-08-02T01:38:32.002Z,15.14
2022-08-02T01:39:32.294Z,15.12
2022-08-02T01:40:31.740Z,15.12
2022-08-02T01:41:29.741Z,15.12
2022-08-02T01:42:26.510Z,15.11
2022-08-02T01:43:23.291Z,15.10
2022-08-02T01:44:27.231Z,15.09
2022-08-02T01:45:30.052Z,15.10
2022-08-02T01:46:28.005Z,15.13
2022-08-02T01:47:28.901Z,15.15
2022-08-02T01:48:27.299Z,15.17
2022-08-02T01:49:24.212Z,15.16
2022-08-02T01:50:23.977Z,15.21
2022-08-02T01:51:41.663Z,15.22
2022-08-02T01:52:39.512Z,15.26
2022-08-02T01:53:50.372Z,15.28
2022-08-02T01:54:58.269Z,15.30
2022-08-02T01:55:57.783Z,15.32
2022-08-02T01:56:55.853Z,15.30
2022-08-02T01:57:54.156Z,15.31
2022-08-02T01:58:50.971Z,15.29
2022-08-02T01:59:47.846Z,15.31
2022-08-02T02:00:44.821Z,15.30
2022-08-02T02:01:41.836Z,15.31
2022-08-02T02:02:41.778Z,15.31
2022-08-02T02:03:41.711Z,15.29
2022-08-02T02:04:38.581Z,15.30
2022-08-02T02:05:35.504Z,15.31
2022-08-02T02:06:32.760Z,15.32
2022-08-02T02:07:30.578Z,15.35
2022-08-02T02:08:29.306Z,15.35
2022-08-02T02:09:28.685Z,15.35
2022-08-02T02:10:31.336Z,15.35
2022-08-02T02:12:09.351Z,15.33
2022-08-02T02:12:46.479Z,15.32
2022-08-02T02:13:43.270Z,15.30
2022-08-02T02:14:40.089Z,15.32
2022-08-02T02:15:40.942Z,15.31
2022-08-02T02:16:38.552Z,15.30
2022-08-02T02:18:10.879Z,15.30
2022-08-02T02:23:35.645Z,15.17
2022-08-02T02:24:33.873Z,15.11
2022-08-02T02:25:35.916Z,15.09
2022-08-02T02:26:33.311Z,15.05
2022-08-02T02:27:30.653Z,15.03
2022-08-02T02:28:30.261Z,14.96
2022-08-02T02:29:27.589Z,14.96
2022-08-02T02:30:26.099Z,14.95
2022-08-02T02:31:23.078Z,14.93
2022-08-02T02:32:19.853Z,14.92
2022-08-02T02:33:19.581Z,14.90
2022-08-02T02:34:18.109Z,14.89
2022-08-02T02:35:14.871Z,14.88
2022-08-02T02:36:11.709Z,14.87
2022-08-02T02:37:11.638Z,14.88
2022-08-02T02:38:12.341Z,14.87
2022-08-02T02:39:13.526Z,14.84
2022-08-02T02:40:10.863Z,14.85
2022-08-02T02:41:07.566Z,14.81
2022-08-02T02:42:04.679Z,14.82
2022-08-02T02:43:01.342Z,14.81
2022-08-02T02:44:00.371Z,14.81
2022-08-02T02:44:57.269Z,14.77
2022-08-02T02:45:54.151Z,14.77
2022-08-02T02:46:52.940Z,14.75
2022-08-02T02:47:49.842Z,14.74
2022-08-02T02:48:46.610Z,14.73
2022-08-02T02:49:46.874Z,14.69
2022-08-02T02:50:43.938Z,14.72
2022-08-02T02:51:40.966Z,14.73
2022-08-02T02:54:32.224Z,14.70
2022-08-02T02:55:08.201Z,14.67
2022-08-02T02:56:05.238Z,14.65
2022-08-02T02:57:02.141Z,14.64
2022-08-02T02:57:58.913Z,14.64
2022-08-02T02:58:55.681Z,14.63
2022-08-02T02:59:54.409Z,14.62
2022-08-02T03:01:10.132Z,14.62
2022-08-02T03:02:07.058Z,14.61
2022-08-02T03:03:03.706Z,14.56
2022-08-02T03:04:02.469Z,14.58
2022-08-02T03:05:01.649Z,14.55
2022-08-02T03:05:58.407Z,14.56
2022-08-02T03:06:55.254Z,14.58
2022-08-02T03:07:52.076Z,14.60
2022-08-02T03:08:48.831Z,14.59
2022-08-02T03:09:53.863Z,14.63
2022-08-02T03:10:51.610Z,14.63
2022-08-02T03:11:48.628Z,14.61
2022-08-02T03:12:45.350Z,14.63
2022-08-02T03:13:42.194Z,14.61
2022-08-02T03:14:44.815Z,14.57
2022-08-02T03:15:46.958Z,14.59
2022-08-02T03:16:49.466Z,14.57
2022-08-02T03:17:46.361Z,14.56
2022-08-02T03:18:44.190Z,14.56
2022-08-02T03:19:41.065Z,14.57
2022-08-02T03:20:39.146Z,14.59
2022-08-02T03:23:53.304Z,14.56
2022-08-02T03:24:50.386Z,14.56
2022-08-02T03:25:47.067Z,14.51
2022-08-02T03:26:43.861Z,14.55
2022-08-02T03:27:40.783Z,14.56
2022-08-02T03:28:37.569Z,14.56
2022-08-02T03:29:34.888Z,14.56
2022-08-02T03:30:31.711Z,14.57
2022-08-02T03:31:28.624Z,14.61
2022-08-02T03:32:29.720Z,14.62
2022-08-02T03:33:26.740Z,14.64
2022-08-02T03:34:23.486Z,14.63
2022-08-02T03:35:24.272Z,14.63
2022-08-02T03:36:21.397Z,14.60
2022-08-02T03:37:18.178Z,14.62
2022-08-02T03:38:16.200Z,14.55
2022-08-02T03:39:12.976Z,14.58
2022-08-02T03:40:11.189Z,14.57
2022-08-02T03:41:08.019Z,14.57
2022-08-02T03:42:04.984Z,14.58
2022-08-02T03:43:01.795Z,14.57
2022-08-02T03:43:58.644Z,14.57
2022-08-02T03:44:58.192Z,14.54
2022-08-02T03:45:54.901Z,14.52
2022-08-02T03:46:51.813Z,14.49
2022-08-02T03:47:48.672Z,14.48
2022-08-02T03:48:45.972Z,14.45
2022-08-02T03:53:06.891Z,14.46
2022-08-02T03:54:17.801Z,14.46
2022-08-02T03:55:14.657Z,14.47
2022-08-02T03:56:11.447Z,14.47
2022-08-02T03:57:09.713Z,14.49
2022-08-02T03:58:06.582Z,14.49
2022-08-02T03:59:21.433Z,14.43
2022-08-02T04:00:19.442Z,14.45
2022-08-02T04:01:16.277Z,14.45
2022-08-02T04:02:14.025Z,14.45
2022-08-02T04:03:11.083Z,14.45
2022-08-02T04:04:13.185Z,14.44
2022-08-02T04:05:10.009Z,14.45
2022-08-02T04:06:06.987Z,14.45
2022-08-02T04:07:07.601Z,14.47
2022-08-02T04:08:35.120Z,14.47
2022-08-02T04:09:21.568Z,14.49
2022-08-02T04:10:18.400Z,14.50
2022-08-02T04:11:33.351Z,14.49
2022-08-02T04:12:30.117Z,14.51
2022-08-02T04:13:34.451Z,14.54
2022-08-02T04:14:35.570Z,14.53
2022-08-02T04:15:33.483Z,14.55
2022-08-02T04:16:52.549Z,14.59
2022-08-02T04:17:59.485Z,14.62
2022-08-02T04:18:58.445Z,14.65
2022-08-02T04:23:24.389Z,14.70
2022-08-02T04:24:27.995Z,14.71
2022-08-02T04:25:34.390Z,14.72
2022-08-02T04:26:37.025Z,14.75
2022-08-02T04:28:15.480Z,14.78
2022-08-02T04:28:54.535Z,14.79
2022-08-02T04:29:51.490Z,14.81
2022-08-02T04:30:48.263Z,14.81
2022-08-02T04:31:45.164Z,14.83
2022-08-02T04:32:41.988Z,14.86
2022-08-02T04:33:38.761Z,14.85
2022-08-02T04:34:35.553Z,14.88
2022-08-02T04:35:32.250Z,14.90
2022-08-02T04:36:31.204Z,14.94
2022-08-02T04:37:28.547Z,14.94
2022-08-02T04:38:25.527Z,14.96
2022-08-02T04:39:22.372Z,14.95
2022-08-02T04:40:19.213Z,14.98
2022-08-02T04:41:15.987Z,15.01
2022-08-02T04:42:21.203Z,15.04
2022-08-02T04:43:17.840Z,15.07
2022-08-02T04:44:14.515Z,15.10
2022-08-02T04:45:11.303Z,15.16
2022-08-02T04:46:13.401Z,15.22
2022-08-02T04:47:10.155Z,15.24
2022-08-02T04:54:06.170Z,15.79
2022-08-02T04:55:06.741Z,15.94
2022-08-02T04:56:03.637Z,16.07
2022-08-02T04:57:00.376Z,16.19
2022-08-02T04:57:57.929Z,16.26
2022-08-02T04:58:54.913Z,16.36
2022-08-02T04:59:54.645Z,16.42
2022-08-02T05:00:51.564Z,16.52
2022-08-02T05:01:48.469Z,16.56
2022-08-02T05:02:45.287Z,16.63
2022-08-02T05:03:42.071Z,16.70
2022-08-02T05:04:38.944Z,16.74
2022-08-02T05:05:35.791Z,16.78
2022-08-02T05:06:32.731Z,16.81
2022-08-02T05:07:29.500Z,16.88
2022-08-02T05:08:33.043Z,16.92
2022-08-02T05:09:29.850Z,16.94
2022-08-02T05:10:26.730Z,16.98
2022-08-02T05:11:36.227Z,17.00
2022-08-02T05:12:33.758Z,17.03
2022-08-02T05:13:30.546Z,17.04
2022-08-02T05:14:27.363Z,17.03
2022-08-02T05:15:24.398Z,17.03
2022-08-02T05:16:21.606Z,17.02
2022-08-02T05:17:28.567Z,17.06
2022-08-02T05:18:25.418Z,17.07
2022-08-02T05:24:03.456Z,17.10
2022-08-02T05:25:00.193Z,17.16
2022-08-02T05:25:56.817Z,17.25
2022-08-02T05:26:53.487Z,17.24
2022-08-02T05:27:50.250Z,17.27
2022-08-02T05:28:46.977Z,17.27
2022-08-02T05:29:53.863Z,17.31
2022-08-02T05:30:53.976Z,17.32
2022-08-02T05:31:50.779Z,17.33
2022-08-02T05:32:48.547Z,17.34
2022-08-02T05:33:45.438Z,17.37
2022-08-02T05:34:42.139Z,17.41
2022-08-02T05:35:40.988Z,17.45
2022-08-02T05:36:37.821Z,17.51
2022-08-02T05:37:39.156Z,17.56
2022-08-02T05:38:39.126Z,17.65
2022-08-02T05:39:36.049Z,17.72
2022-08-02T05:40:54.378Z,17.79
2022-08-02T05:41:52.027Z,17.84
2022-08-02T05:42:49.004Z,17.88
2022-08-02T05:43:46.452Z,17.94
2022-08-02T05:44:43.210Z,18.06
2022-08-02T05:45:40.196Z,18.13
2022-08-02T05:46:38.028Z,18.20
2022-08-02T05:47:34.802Z,18.27
2022-08-02T05:48:32.447Z,18.32
2022-08-02T05:49:29.585Z,18.38
2022-08-02T05:50:26.531Z,18.42
2022-08-02T05:51:29.207Z,18.52
2022-08-02T05:52:48.895Z,18.59
2022-08-02T05:53:50.832Z,18.67
2022-08-02T05:54:50.626Z,18.73
2022-08-02T05:56:16.324Z,18.77
2022-08-02T05:57:47.200Z,18.91
2022-08-02T05:58:46.998Z,18.97
2022-08-02T06:00:06.381Z,19.02
2022-08-02T06:01:04.121Z,19.12
2022-08-02T06:02:04.805Z,19.20
2022-08-02T06:03:16.953Z,19.25
2022-08-02T06:04:21.531Z,19.32
2022-08-02T06:05:21.653Z,19.39
2022-08-02T06:06:23.430Z,19.46
2022-08-02T06:07:20.593Z,19.52
2022-08-02T06:08:17.648Z,19.56
2022-08-02T06:09:23.135Z,19.61
2022-08-02T06:10:24.421Z,19.65
2022-08-02T06:11:24.692Z,19.70
2022-08-02T06:12:21.777Z,19.74
2022-08-02T06:13:19.911Z,19.73
2022-08-02T06:14:17.160Z,19.74
2022-08-02T06:15:15.408Z,19.78
2022-08-02T06:16:14.344Z,19.82
2022-08-02T06:17:12.121Z,19.83
2022-08-02T06:18:09.566Z,19.86
2022-08-02T06:19:07.102Z,19.91
2022-08-02T06:20:06.310Z,19.95
2022-08-02T06:22:35.110Z,19.97
2022-08-02T06:22:36.111Z,20.00
2022-08-02T06:23:42.435Z,20.13
2022-08-02T06:24:55.794Z,20.14
2022-08-02T06:25:53.190Z,20.16
2022-08-02T06:26:52.849Z,20.17
2022-08-02T06:27:49.777Z,20.19
2022-08-02T06:28:46.593Z,20.23
2022-08-02T06:29:43.636Z,20.30
2022-08-02T06:30:41.050Z,20.36
2022-08-02T06:31:37.939Z,20.41
2022-08-02T06:32:34.687Z,20.45
2022-08-02T06:33:31.427Z,20.54
2022-08-02T06:34:28.310Z,20.61
2022-08-02T06:35:27.204Z,20.65
2022-08-02T06:36:42.461Z,20.72
2022-08-02T06:37:58.656Z,20.75
2022-08-02T06:39:01.883Z,20.81
2022-08-02T06:40:08.881Z,20.89
2022-08-02T06:41:07.255Z,20.94
2022-08-02T06:42:11.416Z,21.02
2022-08-02T06:43:13.175Z,21.04
2022-08-02T06:44:45.109Z,21.08
2022-08-02T06:45:26.994Z,21.08
2022-08-02T06:47:09.788Z,21.09
2022-08-02T06:53:45.453Z,21.22
2022-08-02T06:54:42.482Z,21.29
2022-08-02T06:55:43.863Z,21.33
2022-08-02T06:56:41.018Z,21.42
2022-08-02T06:57:37.972Z,21.45
2022-08-02T06:58:34.748Z,21.47
2022-08-02T06:59:31.524Z,21.51
2022-08-02T07:00:28.429Z,21.57
2022-08-02T07:01:25.165Z,21.62
2022-08-02T07:02:21.974Z,21.70
2022-08-02T07:03:18.719Z,21.71
2022-08-02T07:04:18.620Z,21.71
2022-08-02T07:05:16.967Z,21.71
2022-08-02T07:06:13.710Z,21.75
2022-08-02T07:07:10.603Z,21.77
2022-08-02T07:08:07.586Z,21.75
2022-08-02T07:09:20.670Z,21.77
2022-08-02T07:10:18.056Z,21.81
2022-08-02T07:11:14.940Z,21.85
2022-08-02T07:12:12.059Z,21.92
2022-08-02T07:13:09.212Z,21.96
2022-08-02T07:14:06.119Z,21.95
2022-08-02T07:15:05.134Z,21.94
2022-08-02T07:16:02.561Z,21.85
2022-08-02T07:16:59.352Z,21.80
2022-08-02T07:17:59.300Z,21.85
2022-08-02T07:23:30.469Z,22.02
2022-08-02T07:24:27.187Z,22.05
2022-08-02T07:25:24.000Z,22.11
2022-08-02T07:26:20.703Z,22.17
2022-08-02T07:27:17.468Z,22.27
2022-08-02T07:28:22.117Z,22.33
2022-08-02T07:29:21.181Z,22.35
2022-08-02T07:30:17.859Z,22.38
2022-08-02T07:31:14.558Z,22.42
2022-08-02T07:32:11.357Z,22.44
2022-08-02T07:33:08.334Z,22.48
2022-08-02T07:34:25.011Z,22.53
2022-08-02T07:35:22.499Z,22.59
2022-08-02T07:36:22.373Z,22.62
2022-08-02T07:37:34.911Z,22.66
2022-08-02T07:38:33.060Z,22.72
2022-08-02T07:39:31.263Z,22.79
2022-08-02T07:40:30.553Z,22.88
2022-08-02T07:41:27.206Z,22.95
2022-08-02T07:42:24.095Z,22.89
2022-08-02T07:43:20.815Z,22.93
2022-08-02T07:44:18.389Z,22.95
2022-08-02T07:45:15.122Z,23.00
2022-08-02T07:46:12.085Z,23.08
2022-08-02T07:47:09.257Z,23.21
2022-08-02T07:53:50.015Z,23.63
2022-08-02T07:54:48.648Z,23.55
2022-08-02T07:55:45.521Z,23.41
2022-08-02T07:56:42.262Z,23.38
2022-08-02T07:57:43.870Z,23.37
2022-08-02T07:58:43.063Z,23.38
2022-08-02T07:59:40.015Z,23.47
2022-08-02T08:00:36.787Z,23.45
2022-08-02T08:01:33.646Z,23.40
2022-08-02T08:02:32.893Z,23.45
2022-08-02T08:03:29.654Z,23.51
2022-08-02T08:04:26.785Z,23.62
2022-08-02T08:05:23.890Z,23.69
2022-08-02T08:06:20.707Z,23.72
2022-08-02T08:07:25.939Z,23.66
2022-08-02T08:08:22.791Z,23.69
2022-08-02T08:09:20.026Z,23.72
2022-08-02T08:10:16.877Z,23.67
2022-08-02T08:11:13.754Z,23.56
2022-08-02T08:12:11.279Z,23.46
2022-08-02T08:13:08.157Z,23.25
2022-08-02T08:14:05.203Z,23.26
2022-08-02T08:15:01.966Z,23.38
2022-08-02T08:15:59.142Z,23.53
2022-08-02T08:16:55.819Z,23.65
2022-08-02T08:23:31.528Z,24.04
2022-08-02T08:24:28.450Z,24.13
2022-08-02T08:25:27.241Z,24.14
2022-08-02T08:26:25.462Z,24.15
2022-08-02T08:27:23.162Z,24.15
2022-08-02T08:28:20.104Z,24.14
2022-08-02T08:29:16.808Z,24.04
2022-08-02T08:30:13.571Z,23.94
2022-08-02T08:31:10.425Z,23.84
2022-08-02T08:32:10.046Z,23.95
2022-08-02T08:33:11.076Z,24.07
2022-08-02T08:34:07.904Z,24.22
2022-08-02T08:35:07.018Z,24.42
2022-08-02T08:36:04.508Z,24.60
2022-08-02T08:37:03.310Z,24.80
2022-08-02T08:38:04.165Z,24.97
2022-08-02T08:39:04.686Z,25.15
2022-08-02T08:40:01.440Z,25.33
2022-08-02T08:40:58.131Z,25.36
2022-08-02T08:41:54.820Z,25.49
2022-08-02T08:42:51.608Z,25.53
2022-08-02T08:43:53.123Z,25.66
2022-08-02T08:44:51.475Z,25.83
2022-08-02T08:45:55.624Z,25.85
2022-08-02T08:46:53.389Z,25.95
2022-08-02T08:53:44.129Z,25.50
2022-08-02T08:54:41.053Z,25.39
2022-08-02T08:55:37.877Z,25.21
2022-08-02T08:56:35.641Z,25.02
2022-08-02T08:57:32.579Z,24.83
2022-08-02T08:58:29.317Z,24.75
2022-08-02T08:59:26.313Z,24.71
2022-08-02T09:00:23.045Z,24.50
2022-08-02T09:01:20.056Z,24.29
2022-08-02T09:02:21.445Z,24.24
2022-08-02T09:03:18.558Z,24.29
2022-08-02T09:04:15.339Z,24.42
2022-08-02T09:05:13.719Z,24.39
2022-08-02T09:06:10.479Z,24.39
2022-08-02T09:07:07.494Z,24.52
2022-08-02T09:08:04.744Z,24.66
2022-08-02T09:09:01.641Z,24.82
2022-08-02T09:09:58.377Z,25.01
2022-08-02T09:10:55.311Z,25.01
2022-08-02T09:11:52.152Z,25.03
2022-08-02T09:13:39.066Z,25.09
2022-08-02T09:14:33.958Z,25.12
2022-08-02T09:15:30.781Z,25.26
2022-08-02T09:16:33.230Z,25.46
2022-08-02T09:17:30.274Z,25.60
2022-08-02T09:23:15.179Z,25.45
2022-08-02T09:24:20.545Z,25.75
2022-08-02T09:25:17.490Z,26.05
2022-08-02T09:26:16.453Z,26.35
2022-08-02T09:27:17.626Z,26.61
2022-08-02T09:28:14.390Z,26.84
2022-08-02T09:29:11.353Z,27.04
2022-08-02T09:30:14.264Z,27.17
2022-08-02T09:31:23.183Z,27.24
2022-08-02T09:32:20.237Z,27.24
2022-08-02T09:33:29.107Z,27.35
2022-08-02T09:34:28.146Z,27.17
2022-08-02T09:36:06.363Z,26.99
2022-08-02T09:36:54.908Z,26.61
2022-08-02T09:37:52.907Z,26.34
2022-08-02T09:39:01.494Z,26.47
2022-08-02T09:40:03.243Z,26.61
2022-08-02T09:41:00.120Z,26.75
2022-08-02T09:41:57.017Z,26.93
2022-08-02T09:42:59.834Z,27.10
2022-08-02T09:44:05.413Z,27.31
2022-08-02T09:45:02.942Z,27.57
2022-08-02T09:45:59.782Z,27.70
2022-08-02T09:46:56.534Z,27.88
2022-08-02T09:54:05.970Z,27.66
2022-08-02T09:55:05.701Z,27.28
2022-08-02T09:56:02.460Z,26.88
2022-08-02T09:57:00.241Z,26.61
2022-08-02T09:57:57.269Z,26.38
2022-08-02T09:58:55.210Z,26.29
2022-08-02T09:59:53.460Z,26.37
2022-08-02T10:00:59.035Z,26.44
2022-08-02T10:02:01.829Z,26.59
2022-08-02T10:03:13.647Z,27.05
2022-08-02T10:04:24.657Z,27.58
2022-08-02T10:05:21.779Z,28.09
2022-08-02T10:06:19.301Z,28.36
2022-08-02T10:07:16.545Z,28.65
2022-08-02T10:08:13.674Z,29.01
2022-08-02T10:09:10.957Z,28.61
2022-08-02T10:10:08.074Z,28.17
2022-08-02T10:11:04.904Z,28.08
2022-08-02T10:12:01.759Z,28.36
2022-08-02T10:13:00.536Z,28.63
2022-08-02T10:13:57.416Z,28.63
2022-08-02T10:14:54.201Z,28.78
2022-08-02T10:15:51.098Z,28.92
2022-08-02T10:16:48.017Z,28.54
2022-08-02T10:23:46.090Z,29.41
2022-08-02T10:24:47.413Z,29.70
2022-08-02T10:25:45.319Z,29.74
2022-08-02T10:26:46.247Z,29.82
2022-08-02T10:28:04.156Z,29.99
2022-08-02T10:29:00.695Z,30.19
2022-08-02T10:29:58.043Z,30.06
2022-08-02T10:30:54.904Z,29.97
2022-08-02T10:31:57.403Z,30.11
2022-08-02T10:32:54.390Z,30.00
2022-08-02T10:33:53.057Z,30.01
2022-08-02T10:34:55.483Z,30.40
2022-08-02T10:36:04.253Z,30.62
2022-08-02T10:37:04.743Z,30.51
2022-08-02T10:38:04.095Z,30.64
2022-08-02T10:39:01.591Z,31.00
2022-08-02T10:39:58.708Z,31.33
2022-08-02T10:40:56.103Z,31.95
2022-08-02T10:41:53.206Z,32.57
2022-08-02T10:42:51.736Z,32.97
2022-08-02T10:43:49.122Z,33.35
2022-08-02T10:44:46.128Z,34.00
2022-08-02T10:45:44.858Z,34.65
2022-08-02T10:46:43.531Z,34.97
2022-08-02T10:53:04.217Z,33.86
2022-08-02T10:54:10.173Z,34.23
2022-08-02T10:55:13.874Z,33.93
2022-08-02T10:56:11.886Z,34.52
2022-08-02T10:57:16.466Z,34.64
2022-08-02T10:58:17.185Z,34.87
2022-08-02T10:59:36.274Z,34.94
2022-08-02T11:00:33.471Z,35.02
2022-08-02T11:01:38.697Z,34.33
2022-08-02T11:02:43.982Z,34.19
2022-08-02T11:03:41.240Z,33.88
2022-08-02T11:04:38.183Z,33.70
2022-08-02T11:05:43.076Z,33.84
2022-08-02T11:07:11.309Z,33.66
2022-08-02T11:08:21.044Z,33.19
2022-08-02T11:09:31.860Z,33.52
2022-08-02T11:10:30.579Z,33.96
2022-08-02T11:11:53.319Z,34.23
2022-08-02T11:13:16.922Z,33.53
2022-08-02T11:14:14.025Z,33.17
2022-08-02T11:15:10.786Z,33.28
2022-08-02T11:16:11.630Z,33.03
2022-08-02T11:17:09.333Z,32.39
2022-08-02T11:23:52.903Z,33.24
2022-08-02T11:24:49.748Z,33.37
2022-08-02T11:26:07.575Z,33.31
2022-08-02T11:27:08.072Z,33.41
2022-08-02T11:28:09.801Z,33.63
2022-08-02T11:29:06.624Z,34.13
2022-08-02T11:30:03.542Z,34.38
2022-08-02T11:31:01.213Z,34.72
2022-08-02T11:31:59.796Z,35.19
2022-08-02T11:32:59.877Z,35.62
2022-08-02T11:33:56.691Z,34.76
2022-08-02T11:34:54.058Z,33.98
2022-08-02T11:35:50.908Z,33.49
2022-08-02T11:36:48.709Z,33.35
2022-08-02T11:37:45.709Z,33.23
2022-08-02T11:38:42.683Z,32.92
2022-08-02T11:39:39.515Z,33.08
2022-08-02T11:40:39.086Z,33.21
2022-08-02T11:41:46.723Z,33.33
2022-08-02T11:42:45.594Z,33.55
2022-08-02T11:43:43.252Z,33.72
2022-08-02T11:44:41.448Z,33.65
2022-08-02T11:45:38.558Z,33.35
2022-08-02T11:46:35.703Z,33.03
2022-08-02T11:47:32.815Z,32.64
2022-08-02T11:54:08.784Z,31.25
2022-08-02T11:55:07.597Z,31.24
2022-08-02T11:56:04.672Z,31.49
2022-08-02T11:57:20.315Z,31.33
2022-08-02T11:58:17.934Z,30.87
2022-08-02T11:59:14.972Z,30.45
2022-08-02T12:00:18.332Z,30.78
2022-08-02T12:01:15.170Z,30.95
2022-08-02T12:02:12.374Z,31.13
2022-08-02T12:03:09.461Z,30.54
2022-08-02T12:04:07.034Z,30.19
2022-08-02T12:05:09.218Z,30.02
2022-08-02T12:06:16.342Z,29.67
2022-08-02T12:07:14.888Z,29.66
2022-08-02T12:08:11.990Z,29.97
2022-08-02T12:09:18.866Z,30.28
2022-08-02T12:10:20.596Z,30.60
2022-08-02T12:11:20.006Z,30.92
2022-08-02T12:12:16.747Z,30.90
2022-08-02T12:13:13.613Z,30.82
2022-08-02T12:14:11.075Z,30.82
2022-08-02T12:15:08.668Z,30.56
2022-08-02T12:16:30.685Z,30.55
2022-08-02T12:17:47.615Z,31.16
2022-08-02T12:19:11.169Z,32.37
2022-08-02T12:24:00.327Z,35.90
2022-08-02T12:24:58.610Z,36.34
2022-08-02T12:26:09.470Z,36.73
2022-08-02T12:27:28.748Z,37.18
2022-08-02T12:28:26.852Z,36.70
2022-08-02T12:29:55.788Z,36.17
2022-08-02T12:31:00.735Z,35.76
2022-08-02T12:31:58.268Z,35.69
2022-08-02T12:33:07.900Z,35.82
2022-08-02T12:34:18.101Z,36.61
2022-08-02T12:35:26.755Z,36.87
2022-08-02T12:36:28.002Z,36.82
2022-08-02T12:37:26.184Z,36.65
2022-08-02T12:38:23.226Z,37.01
2022-08-02T12:39:20.041Z,37.50
2022-08-02T12:40:25.232Z,37.60
2022-08-02T12:41:30.366Z,37.81
2022-08-02T12:42:29.326Z,37.65
2022-08-02T12:43:26.149Z,37.72
2022-08-02T12:44:22.971Z,36.88
2022-08-02T12:45:19.892Z,36.55
2022-08-02T12:46:18.571Z,36.33
2022-08-02T12:47:15.323Z,36.03
2022-08-02T12:53:15.946Z,34.75
2022-08-02T12:54:25.760Z,34.81
2022-08-02T12:56:01.153Z,34.70
2022-08-02T12:56:45.271Z,34.34
2022-08-02T12:57:53.951Z,35.08
2022-08-02T12:58:51.286Z,35.98
2022-08-02T12:59:53.253Z,36.46
2022-08-02T13:00:57.796Z,37.02
2022-08-02T13:01:54.622Z,37.39
2022-08-02T13:02:51.692Z,37.63
2022-08-02T13:04:09.944Z,37.72
2022-08-02T13:05:05.805Z,37.94
2022-08-02T13:06:17.038Z,38.41
2022-08-02T13:07:19.536Z,38.70
2022-08-02T13:08:16.676Z,38.86
2022-08-02T13:09:15.193Z,38.57
2022-08-02T13:10:12.129Z,39.17
2022-08-02T13:11:08.947Z,39.62
2022-08-02T13:12:06.657Z,39.87
2022-08-02T13:13:03.727Z,39.86
2022-08-02T13:14:00.735Z,39.72
2022-08-02T13:14:57.838Z,39.60
2022-08-02T13:15:54.873Z,39.81
2022-08-02T13:16:55.647Z,39.42
2022-08-02T13:23:54.728Z,39.90
2022-08-02T13:24:56.587Z,39.08
2022-08-02T13:25:54.935Z,38.55
2022-08-02T13:26:51.884Z,38.51
2022-08-02T13:27:51.662Z,39.01
2022-08-02T13:28:48.843Z,39.68
2022-08-02T13:29:45.786Z,40.80
2022-08-02T13:30:42.722Z,41.43
2022-08-02T13:31:39.878Z,40.50
2022-08-02T13:32:36.829Z,40.14
2022-08-02T13:33:33.779Z,40.06
2022-08-02T13:34:30.559Z,40.31
2022-08-02T13:35:27.635Z,39.91
2022-08-02T13:36:24.716Z,40.24
2022-08-02T13:37:22.265Z,39.65
2022-08-02T13:38:24.542Z,39.00
2022-08-02T13:39:21.765Z,37.85
2022-08-02T13:40:22.107Z,37.75
2022-08-02T13:41:19.189Z,38.21
2022-08-02T13:42:16.080Z,38.51
2022-08-02T13:43:13.994Z,38.98
2022-08-02T13:44:11.149Z,38.86
2022-08-02T13:45:12.796Z,39.57
2022-08-02T13:46:11.015Z,40.11
2022-08-02T13:47:11.306Z,40.11
2022-08-02T13:54:00.920Z,40.89
2022-08-02T13:54:57.690Z,40.22
2022-08-02T13:55:56.380Z,39.16
2022-08-02T13:56:53.250Z,39.23
2022-08-02T13:57:53.642Z,39.05
2022-08-02T13:58:51.314Z,38.79
2022-08-02T13:59:55.799Z,38.35
2022-08-02T14:00:55.676Z,37.73
2022-08-02T14:01:53.954Z,37.23
2022-08-02T14:02:50.937Z,36.91
2022-08-02T14:04:07.358Z,36.37
2022-08-02T14:05:05.141Z,36.48
2022-08-02T14:06:02.180Z,37.21
2022-08-02T14:06:59.249Z,37.60
2022-08-02T14:08:00.187Z,37.93
2022-08-02T14:08:58.500Z,38.39
2022-08-02T14:09:55.508Z,38.69
2022-08-02T14:10:52.643Z,38.96
2022-08-02T14:11:49.608Z,39.41
2022-08-02T14:12:46.466Z,39.95
2022-08-02T14:13:53.444Z,40.54
2022-08-02T14:14:50.623Z,40.55
2022-08-02T14:15:47.631Z,40.77
2022-08-02T14:16:45.361Z,41.52
2022-08-02T14:24:01.947Z,39.87
2022-08-02T14:24:59.005Z,39.75
2022-08-02T14:26:14.120Z,39.76
2022-08-02T14:27:25.521Z,39.82
2022-08-02T14:28:22.445Z,40.05
2022-08-02T14:29:22.543Z,40.32
2022-08-02T14:30:19.964Z,40.19
2022-08-02T14:31:16.847Z,39.46
2022-08-02T14:32:13.899Z,39.37
2022-08-02T14:33:11.038Z,40.04
2022-08-02T14:34:07.849Z,40.71
2022-08-02T14:35:04.918Z,40.93
2022-08-02T14:36:01.810Z,40.81
2022-08-02T14:36:58.653Z,40.22
2022-08-02T14:37:55.491Z,39.85
2022-08-02T14:38:52.453Z,40.06
2022-08-02T14:40:00.018Z,40.24
2022-08-02T14:40:57.957Z,40.48
2022-08-02T14:42:00.079Z,40.80
2022-08-02T14:42:57.623Z,40.34
2022-08-02T14:44:07.846Z,40.38
2022-08-02T14:45:05.137Z,39.38
2022-08-02T14:46:02.172Z,39.03
2022-08-02T14:46:58.992Z,38.62
2022-08-02T14:53:37.931Z,41.18
2022-08-02T14:54:47.015Z,41.77
2022-08-02T14:55:50.247Z,41.76
2022-08-02T14:56:48.839Z,41.68
2022-08-02T14:57:45.893Z,41.64
2022-08-02T14:58:42.853Z,40.99
2022-08-02T14:59:42.246Z,40.77
2022-08-02T15:00:41.086Z,40.38
2022-08-02T15:01:38.371Z,39.75
2022-08-02T15:02:35.295Z,39.63
2022-08-02T15:03:32.109Z,40.00
2022-08-02T15:04:42.541Z,40.60
2022-08-02T15:05:40.398Z,40.36